createdAt,value
2023-08-19T00:00:59.032Z,6.90
2023-08-19T00:04:12.645Z,7.20
2023-08-19T00:07:16.850Z,7.10
2023-08-19T00:10:19.512Z,7.20
2023-08-19T00:13:22.379Z,7.70
2023-08-19T00:16:25.179Z,8.30
2023-08-19T00:19:27.913Z,7.90
2023-08-19T00:22:30.582Z,8.00
2023-08-19T00:25:34.881Z,8.40
2023-08-19T00:28:37.658Z,8.00
2023-08-19T00:31:41.133Z,7.60
2023-08-19T00:34:44.720Z,8.20
2023-08-19T00:37:47.489Z,8.10
2023-08-19T00:40:50.294Z,7.60
2023-08-19T00:43:53.131Z,7.20
2023-08-19T00:46:56.514Z,8.20
2023-08-19T00:49:59.291Z,7.80
2023-08-19T00:53:02.865Z,8.20
2023-08-19T00:56:05.643Z,8.30
2023-08-19T00:59:08.509Z,7.90
2023-08-19T01:02:11.476Z,7.90
2023-08-19T01:05:14.341Z,8.50
2023-08-19T01:08:27.015Z,8.30
2023-08-19T01:11:55.496Z,8.50
2023-08-19T01:15:13.714Z,7.70
2023-08-19T01:18:18.078Z,7.90
2023-08-19T01:21:22.488Z,8.00
2023-08-19T01:24:27.027Z,8.10
2023-08-19T01:27:30.001Z,8.20
2023-08-19T01:30:35.206Z,8.70
2023-08-19T01:33:38.832Z,8.00
2023-08-19T01:36:45.979Z,6.90
2023-08-19T01:39:50.179Z,8.20
2023-08-19T01:42:54.657Z,7.50
2023-08-19T01:45:57.975Z,7.90
2023-08-19T01:49:00.736Z,7.90
2023-08-19T01:52:03.936Z,8.40
2023-08-19T01:55:07.446Z,8.40
2023-08-19T01:58:10.267Z,8.30
2023-08-19T02:01:14.314Z,7.50
2023-08-19T02:04:18.768Z,8.50
2023-08-19T02:07:21.640Z,7.80
2023-08-19T02:10:24.713Z,7.90
2023-08-19T02:13:27.586Z,8.30
2023-08-19T02:16:30.360Z,8.90
2023-08-19T02:19:33.224Z,7.50
2023-08-19T02:22:36.065Z,7.20
2023-08-19T02:25:38.698Z,8.40
2023-08-19T02:28:41.464Z,7.90
2023-08-19T02:31:45.003Z,8.00
2023-08-19T02:34:48.392Z,8.50
2023-08-19T02:37:51.168Z,9.10
2023-08-19T02:40:54.759Z,9.90
2023-08-19T02:43:57.923Z,8.30
2023-08-19T02:47:00.633Z,7.70
2023-08-19T02:50:03.399Z,8.40
2023-08-19T02:53:06.222Z,8.70
2023-08-19T02:56:08.932Z,8.30
2023-08-19T02:59:12.776Z,8.50
2023-08-19T03:02:15.575Z,7.80
2023-08-19T03:05:18.418Z,8.20
2023-08-19T03:08:21.181Z,6.90
2023-08-19T03:11:23.953Z,8.30
2023-08-19T03:14:26.723Z,8.00
2023-08-19T03:17:29.559Z,8.10
2023-08-19T03:20:32.576Z,8.00
2023-08-19T03:23:35.331Z,8.50
2023-08-19T03:26:38.102Z,8.10
2023-08-19T03:29:40.877Z,7.60
2023-08-19T03:32:43.917Z,8.20
2023-08-19T03:35:47.121Z,8.40
2023-08-19T03:38:49.906Z,8.30
2023-08-19T03:41:52.651Z,8.60
2023-08-19T03:44:55.423Z,8.80
2023-08-19T03:47:58.152Z,7.70
2023-08-19T03:51:00.854Z,8.00
2023-08-19T03:54:03.728Z,8.90
2023-08-19T03:57:06.494Z,8.70
2023-08-19T04:00:11.221Z,9.10
2023-08-19T04:03:14.078Z,8.80
2023-08-19T04:06:16.817Z,8.00
2023-08-19T04:09:19.621Z,7.30
2023-08-19T04:12:25.818Z,9.40
2023-08-19T04:15:31.437Z,8.40
2023-08-19T04:18:35.435Z,8.30
2023-08-19T04:21:38.265Z,8.40
2023-08-19T04:24:41.428Z,9.70
2023-08-19T04:27:44.207Z,8.10
2023-08-19T04:30:46.967Z,8.50
2023-08-19T04:33:49.789Z,9.30
2023-08-19T04:36:52.653Z,8.70
2023-08-19T04:39:55.492Z,8.90
2023-08-19T04:42:58.855Z,9.90
2023-08-19T04:46:01.650Z,8.40
2023-08-19T04:49:04.492Z,9.30
2023-08-19T04:52:07.299Z,9.00
2023-08-19T04:55:10.348Z,9.30
2023-08-19T04:58:13.508Z,8.80
2023-08-19T05:01:16.407Z,8.90
2023-08-19T05:04:20.106Z,8.10
2023-08-19T05:07:23.054Z,9.20
2023-08-19T05:10:26.437Z,9.20
2023-08-19T05:13:29.404Z,9.10
2023-08-19T05:16:32.162Z,9.60
2023-08-19T05:19:37.089Z,9.80
2023-08-19T05:22:39.803Z,9.20
2023-08-19T05:25:42.625Z,7.90
2023-08-19T05:28:45.388Z,8.80
2023-08-19T05:31:48.224Z,9.30
2023-08-19T05:34:53.427Z,9.60
2023-08-19T05:37:57.077Z,9.70
2023-08-19T05:40:59.815Z,9.90
2023-08-19T05:44:02.600Z,9.50
2023-08-19T05:47:05.469Z,9.60
2023-08-19T05:50:11.520Z,9.30
2023-08-19T05:53:14.291Z,10.00
2023-08-19T05:56:17.005Z,9.50
2023-08-19T05:59:19.712Z,9.50
2023-08-19T06:02:22.376Z,9.10
2023-08-19T06:05:25.794Z,8.20
2023-08-19T06:08:28.534Z,9.20
2023-08-19T06:11:31.406Z,8.90
2023-08-19T06:14:34.210Z,8.60
2023-08-19T06:17:37.127Z,9.50
2023-08-19T06:20:40.009Z,9.10
2023-08-19T06:23:42.882Z,8.30
2023-08-19T06:26:45.645Z,9.30
2023-08-19T06:29:48.412Z,10.00
2023-08-19T06:32:51.493Z,9.70
2023-08-19T06:35:57.731Z,8.70
2023-08-19T06:39:07.765Z,9.20
2023-08-19T06:42:11.864Z,7.70
2023-08-19T06:45:16.719Z,8.00
2023-08-19T06:48:19.957Z,9.00
2023-08-19T06:51:23.179Z,9.40
2023-08-19T06:54:26.218Z,9.00
2023-08-19T06:57:30.803Z,9.40
2023-08-19T07:00:35.499Z,8.00
2023-08-19T07:03:38.966Z,8.30
2023-08-19T07:06:43.433Z,8.20
2023-08-19T07:09:46.701Z,8.50
2023-08-19T07:12:49.982Z,9.50
2023-08-19T07:16:00.630Z,8.90
2023-08-19T07:19:10.578Z,7.50
2023-08-19T07:22:13.637Z,7.80
2023-08-19T07:25:17.030Z,7.90
2023-08-19T07:28:23.177Z,8.20
2023-08-19T07:31:26.336Z,8.30
2023-08-19T07:34:30.434Z,8.40
2023-08-19T07:37:34.949Z,7.30
2023-08-19T07:40:37.994Z,7.40
2023-08-19T07:43:40.792Z,7.90
2023-08-19T07:46:43.560Z,7.30
2023-08-19T07:49:46.432Z,7.50
2023-08-19T07:52:49.400Z,7.50
2023-08-19T07:55:52.172Z,7.10
2023-08-19T07:58:55.247Z,9.90
2023-08-19T08:01:58.155Z,8.20
2023-08-19T08:05:02.277Z,8.10
2023-08-19T08:08:05.897Z,7.20
2023-08-19T08:11:08.777Z,7.90
2023-08-19T08:14:11.840Z,7.20
2023-08-19T08:17:14.709Z,7.10
2023-08-19T08:20:17.783Z,7.80
2023-08-19T08:23:20.552Z,7.20
2023-08-19T08:26:24.148Z,6.90
2023-08-19T08:29:27.010Z,6.80
2023-08-19T08:32:29.797Z,7.20
2023-08-19T08:35:33.778Z,7.40
2023-08-19T08:38:36.541Z,6.40
2023-08-19T08:41:41.051Z,6.60
2023-08-19T08:44:48.393Z,7.00
2023-08-19T08:47:53.100Z,7.00
2023-08-19T08:50:57.338Z,7.20
2023-08-19T08:54:02.250Z,7.40
2023-08-19T08:57:20.263Z,7.00
2023-08-19T09:00:23.336Z,6.70
2023-08-19T09:03:37.876Z,6.50
2023-08-19T09:06:43.407Z,6.50
2023-08-19T09:10:04.492Z,6.50
2023-08-19T09:13:10.557Z,7.20
2023-08-19T09:16:13.349Z,7.40
2023-08-19T09:19:16.167Z,7.10
2023-08-19T09:22:18.831Z,7.20
2023-08-19T09:25:21.917Z,7.20
2023-08-19T09:28:24.786Z,7.20
2023-08-19T09:31:27.622Z,6.70
2023-08-19T09:34:30.316Z,6.80
2023-08-19T09:37:35.236Z,6.60
2023-08-19T09:40:40.130Z,6.60
2023-08-19T09:43:43.219Z,6.40
2023-08-19T09:46:47.646Z,7.90
2023-08-19T09:49:54.103Z,7.90
2023-08-19T09:52:58.899Z,7.40
2023-08-19T09:56:02.168Z,7.20
2023-08-19T09:59:05.150Z,7.30
2023-08-19T10:02:12.517Z,6.50
2023-08-19T10:05:17.175Z,7.10
2023-08-19T10:08:24.386Z,6.80
2023-08-19T10:11:30.803Z,6.50
2023-08-19T10:14:34.581Z,6.40
2023-08-19T10:17:41.031Z,6.30
2023-08-19T10:20:47.235Z,6.30
2023-08-19T10:23:50.949Z,6.40
2023-08-19T10:26:53.842Z,6.50
2023-08-19T10:29:58.379Z,5.60
2023-08-19T10:33:29.733Z,6.10
2023-08-19T10:36:34.542Z,5.20
2023-08-19T10:39:38.238Z,5.30
2023-08-19T10:42:41.711Z,5.30
2023-08-19T10:45:49.280Z,4.80
2023-08-19T10:52:02.273Z,4.50
2023-08-19T10:55:06.901Z,4.40
2023-08-19T10:58:10.490Z,4.50
2023-08-19T11:01:13.266Z,4.30
2023-08-19T11:04:16.597Z,4.50
2023-08-19T11:07:20.427Z,4.20
2023-08-19T11:10:23.621Z,4.20
2023-08-19T11:13:26.418Z,4.50
2023-08-19T11:16:29.646Z,4.00
2023-08-19T11:19:32.744Z,4.50
2023-08-19T11:22:46.537Z,4.20
2023-08-19T11:25:49.423Z,4.00
2023-08-19T11:28:52.208Z,4.20
2023-08-19T11:31:55.407Z,4.10
2023-08-19T11:34:58.341Z,3.90
2023-08-19T11:38:03.200Z,3.90
2023-08-19T11:41:05.896Z,4.40
2023-08-19T11:44:08.697Z,3.90
2023-08-19T11:47:13.220Z,3.70
2023-08-19T11:50:16.063Z,3.40
2023-08-19T11:53:37.311Z,3.20
2023-08-19T11:56:53.639Z,3.10
2023-08-19T11:59:58.255Z,3.20
2023-08-19T12:03:02.859Z,3.60
2023-08-19T12:06:05.835Z,3.40
2023-08-19T12:09:08.698Z,3.20
2023-08-19T12:12:12.399Z,3.20
2023-08-19T12:15:15.669Z,3.30
2023-08-19T12:18:18.850Z,3.40
2023-08-19T12:21:21.709Z,3.40
2023-08-19T12:24:24.684Z,3.60
2023-08-19T12:27:27.560Z,3.60
2023-08-19T12:30:30.327Z,3.90
2023-08-19T12:33:33.285Z,3.70
2023-08-19T12:36:36.057Z,3.40
2023-08-19T12:39:38.819Z,3.90
2023-08-19T12:42:48.567Z,3.40
2023-08-19T12:45:52.528Z,3.50
2023-08-19T12:48:55.412Z,3.30
2023-08-19T12:51:58.182Z,3.70
2023-08-19T12:55:01.050Z,3.10
2023-08-19T12:58:05.511Z,3.20
2023-08-19T13:01:08.320Z,3.40
2023-08-19T13:04:13.381Z,2.90
2023-08-19T13:07:16.220Z,2.70
2023-08-19T13:10:19.092Z,2.90
2023-08-19T13:13:21.754Z,2.80
2023-08-19T13:16:24.553Z,2.90
2023-08-19T13:19:27.495Z,2.80
2023-08-19T13:22:30.472Z,3.50
2023-08-19T13:25:34.181Z,3.10
2023-08-19T13:28:37.036Z,3.10
2023-08-19T13:31:39.793Z,2.70
2023-08-19T13:34:43.936Z,3.10
2023-08-19T13:37:46.877Z,3.10
2023-08-19T13:40:49.731Z,2.90
2023-08-19T13:43:52.506Z,2.90
2023-08-19T13:46:57.010Z,2.80
2023-08-19T13:49:59.780Z,2.50
2023-08-19T13:53:02.594Z,2.50
2023-08-19T13:56:05.416Z,2.70
2023-08-19T13:59:08.178Z,2.90
2023-08-19T14:02:10.948Z,2.80
2023-08-19T14:05:16.754Z,2.70
2023-08-19T14:08:19.657Z,2.20
2023-08-19T14:11:22.630Z,2.60
2023-08-19T14:14:26.012Z,2.20
2023-08-19T14:17:29.113Z,2.40
2023-08-19T14:20:32.062Z,2.60
2023-08-19T14:23:35.748Z,2.40
2023-08-19T14:26:38.620Z,2.30
2023-08-19T14:29:41.495Z,2.20
2023-08-19T14:32:44.279Z,2.30
2023-08-19T14:35:48.144Z,2.20
2023-08-19T14:38:50.813Z,2.40
2023-08-19T14:41:53.682Z,2.20
2023-08-19T14:44:56.347Z,2.30
2023-08-19T14:47:59.485Z,2.10
2023-08-19T14:51:03.218Z,2.00
2023-08-19T14:54:06.608Z,1.90
2023-08-19T14:57:09.567Z,2.00
2023-08-19T15:00:13.373Z,1.90
2023-08-19T15:03:16.337Z,2.20
2023-08-19T15:06:19.723Z,2.10
2023-08-19T15:09:23.045Z,2.40
2023-08-19T15:12:26.476Z,2.10
2023-08-19T15:15:29.242Z,1.90
2023-08-19T15:18:31.960Z,2.00
2023-08-19T15:21:34.988Z,2.10
2023-08-19T15:24:37.758Z,2.00
2023-08-19T15:27:44.189Z,2.20
2023-08-19T15:30:47.390Z,2.20
2023-08-19T15:33:50.866Z,2.10
2023-08-19T15:36:53.522Z,2.00
2023-08-19T15:39:56.294Z,1.90
2023-08-19T15:42:59.167Z,2.10
2023-08-19T15:46:02.055Z,4.60
2023-08-19T15:49:04.970Z,2.40
2023-08-19T15:52:07.884Z,2.10
2023-08-19T15:55:10.977Z,1.90
2023-08-19T15:58:14.245Z,1.80
2023-08-19T16:01:17.018Z,1.70
2023-08-19T16:04:19.870Z,1.90
2023-08-19T16:07:34.053Z,1.70
2023-08-19T16:10:37.416Z,2.20
2023-08-19T16:13:40.349Z,2.00
2023-08-19T16:16:43.166Z,1.80
2023-08-19T16:19:46.608Z,2.00
2023-08-19T16:22:49.594Z,2.10
2023-08-19T16:25:53.671Z,1.90
2023-08-19T16:28:56.449Z,1.90
2023-08-19T16:32:00.228Z,2.30
2023-08-19T16:35:02.996Z,2.30
2023-08-19T16:38:05.881Z,4.40
2023-08-19T16:41:10.579Z,3.80
2023-08-19T16:44:13.395Z,3.00
2023-08-19T16:47:16.213Z,2.20
2023-08-19T16:50:18.982Z,4.40
2023-08-19T16:53:22.696Z,6.90
2023-08-19T16:56:25.445Z,3.20
2023-08-19T16:59:29.234Z,2.50
2023-08-19T17:02:35.437Z,2.40
2023-08-19T17:05:38.270Z,2.50
2023-08-19T17:08:41.013Z,2.50
2023-08-19T17:11:45.425Z,2.90
2023-08-19T17:14:48.193Z,2.60
2023-08-19T17:17:51.167Z,3.40
2023-08-19T17:20:55.464Z,3.40
2023-08-19T17:23:58.175Z,3.90
2023-08-19T17:27:00.997Z,4.60
2023-08-19T17:30:04.486Z,5.40
2023-08-19T17:33:07.821Z,3.10
2023-08-19T17:36:10.735Z,4.40
2023-08-19T17:39:15.574Z,5.00
2023-08-19T17:42:19.683Z,4.30
2023-08-19T17:45:22.375Z,3.30
2023-08-19T17:48:26.752Z,2.80
2023-08-19T17:51:29.486Z,3.20
2023-08-19T17:54:32.251Z,3.20
2023-08-19T17:57:35.763Z,3.10
2023-08-19T18:00:41.757Z,2.90
2023-08-19T18:03:52.481Z,2.70
2023-08-19T18:06:55.296Z,3.20
2023-08-19T18:09:58.165Z,3.40
2023-08-19T18:13:00.899Z,3.10
2023-08-19T18:16:04.032Z,3.80
2023-08-19T18:19:06.783Z,4.40
2023-08-19T18:22:09.854Z,5.70
2023-08-19T18:25:12.616Z,8.00
2023-08-19T18:28:15.593Z,5.40
2023-08-19T18:31:18.705Z,6.00
2023-08-19T18:34:21.538Z,5.70
2023-08-19T18:37:24.406Z,5.80
2023-08-19T18:40:29.346Z,5.30
2023-08-19T18:43:32.415Z,4.80
2023-08-19T18:46:35.164Z,5.00
2023-08-19T18:49:37.881Z,5.50
2023-08-19T18:52:40.596Z,5.20
2023-08-19T18:55:43.577Z,4.40
2023-08-19T18:58:47.463Z,4.70
2023-08-19T19:01:50.234Z,3.90
2023-08-19T19:04:53.008Z,4.00
2023-08-19T19:07:59.096Z,4.10
2023-08-19T19:11:01.824Z,4.60
2023-08-19T19:14:04.676Z,4.80
2023-08-19T19:17:07.454Z,4.80
2023-08-19T19:20:10.734Z,5.10
2023-08-19T19:23:13.901Z,5.00
2023-08-19T19:26:16.989Z,4.40
2023-08-19T19:29:20.568Z,4.80
2023-08-19T19:32:23.433Z,4.70
2023-08-19T19:35:26.208Z,4.70
2023-08-19T19:38:29.377Z,4.10
2023-08-19T19:41:32.048Z,4.80
2023-08-19T19:44:34.835Z,5.70
2023-08-19T19:47:39.283Z,4.70
2023-08-19T19:50:42.393Z,5.20
2023-08-19T19:53:45.264Z,5.50
2023-08-19T19:56:49.306Z,5.30
2023-08-19T19:59:52.098Z,5.20
2023-08-19T20:02:55.041Z,5.60
2023-08-19T20:05:58.075Z,5.50
2023-08-19T20:09:01.219Z,5.40
2023-08-19T20:12:04.377Z,5.40
2023-08-19T20:15:07.658Z,5.50
2023-08-19T20:18:11.043Z,5.30
2023-08-19T20:21:13.806Z,5.90
2023-08-19T20:24:16.628Z,5.70
2023-08-19T20:27:19.424Z,5.50
2023-08-19T20:30:24.653Z,5.60
2023-08-19T20:33:27.486Z,5.70
2023-08-19T20:36:34.268Z,5.90
2023-08-19T20:39:37.120Z,5.60
2023-08-19T20:42:42.694Z,5.90
2023-08-19T20:45:52.436Z,5.60
2023-08-19T20:48:55.170Z,5.90
2023-08-19T20:51:58.012Z,5.60
2023-08-19T20:55:00.994Z,5.50
2023-08-19T20:58:03.959Z,5.50
2023-08-19T21:01:06.839Z,5.50
2023-08-19T21:04:12.294Z,5.60
2023-08-19T21:07:17.701Z,5.60
2023-08-19T21:10:20.447Z,6.10
2023-08-19T21:13:23.213Z,5.40
2023-08-19T21:16:25.988Z,6.00
2023-08-19T21:19:31.615Z,5.70
2023-08-19T21:22:34.385Z,5.50
2023-08-19T21:25:37.147Z,5.60
2023-08-19T21:28:39.914Z,5.80
2023-08-19T21:31:42.706Z,6.20
2023-08-19T21:34:45.515Z,5.60
2023-08-19T21:37:49.242Z,5.60
2023-08-19T21:40:56.926Z,5.20
2023-08-19T21:47:02.667Z,5.80
2023-08-19T21:50:06.790Z,5.80
2023-08-19T21:53:09.632Z,5.30
2023-08-19T21:56:12.707Z,5.90
2023-08-19T21:59:15.475Z,5.40
2023-08-19T22:02:18.245Z,5.70
2023-08-19T22:05:21.009Z,5.80
2023-08-19T22:08:24.199Z,5.90
2023-08-19T22:11:27.054Z,5.60
2023-08-19T22:14:29.823Z,6.20
2023-08-19T22:17:32.822Z,6.50
2023-08-19T22:23:41.811Z,5.70
2023-08-19T22:26:44.481Z,6.20
2023-08-19T22:29:47.242Z,5.90
2023-08-19T22:32:50.214Z,6.00
2023-08-19T22:35:53.132Z,5.90
2023-08-19T22:38:55.967Z,6.50
2023-08-19T22:41:58.726Z,6.00
2023-08-19T22:45:01.489Z,6.10
2023-08-19T22:48:04.584Z,6.10
2023-08-19T22:51:07.337Z,5.80
2023-08-19T22:54:10.316Z,5.10
2023-08-19T22:57:13.694Z,5.30
2023-08-19T23:00:18.465Z,5.60
2023-08-19T23:03:21.995Z,5.60
2023-08-19T23:06:24.859Z,5.30
2023-08-19T23:09:27.723Z,5.20
2023-08-19T23:12:30.700Z,5.20
2023-08-19T23:15:33.466Z,4.90
2023-08-19T23:18:37.968Z,5.20
2023-08-19T23:21:46.341Z,5.10
2023-08-19T23:24:50.678Z,5.30
2023-08-19T23:27:53.437Z,4.70
2023-08-19T23:30:56.931Z,4.90
2023-08-19T23:33:59.795Z,4.70
2023-08-19T23:37:02.575Z,5.10
2023-08-19T23:40:06.044Z,5.10
2023-08-19T23:43:09.420Z,5.00
2023-08-19T23:46:12.317Z,4.70
2023-08-19T23:49:15.471Z,5.00
2023-08-19T23:52:21.869Z,4.60
2023-08-19T23:55:25.423Z,4.30
2023-08-19T23:58:28.597Z,4.50
